Airfield :
LOGIN :

Register | Disclaimer

   EN    FR    IT 

 










Legend :    VFR   Marginal VFR   IFR   Intensive IFR   Very Intensive IFR
Visi :
Ceiling :
>= 8 km
>= 3000ft
5 to 8 km
1000 to 3000 ft
1500m to 5 km
500 to 1000 ft
800 to 1500m
200 to 500 ft
< 800m
< 200 ft
Symbols :   Thunderstorms  Fog  Heavy snow  Heavy precipitations  Wind > 20 kt
SIGMETs :     Misc.  Thunderstorms  Icing  Turbulence  Mountain Waves  Volcanic Ashes






- Airport Elevation : 326 ft
- IATA code : LCG


LECO - A Coruna

CURRENT METAR :
  • 092300Z VRB02KT 9999 BKN027 20/17 Q1016 NOSIG

EXPIRED METARs :
  • 092230Z 00000KT 9999 BKN028 19/17 Q1016 NOSIG
  • 092200Z VRB01KT 9999 BKN028 19/17 Q1016 NOSIG
  • 092130Z 00000KT 9999 BKN028 19/17 Q1016 NOSIG
  • 092100Z VRB02KT 9999 FEW030 19/17 Q1016 NOSIG
  • 092030Z 36003KT 330V060 9999 FEW028 19/17 Q1016 NOSIG

TAF TAF LECO
Valid from the 09 at 21:00 until the 10 at 21:00 UTC


092000Z 0921/1021 36006KT 9999 BKN020 TX23/1014Z TN15/1005Z
TEMPO 0921/1009 BKN010
PROB40
TEMPO 1000/1009 3000 -RA BR BKN005
PROB40
TEMPO 1010/1021 01015G25KT
PROB40
TEMPO 1018/1021 BKN010



MET'MAP, your aeronautical weather chart ! - Copyright ORBIFLY December 2007 - Disclaimer

ORBIFLY MET'MAP TEAM :

Programming & Development : Alexandra Zaïnal
Concept & original design : Baudouin d'Aumeries
Assistance for programming : Marc-Olivier Méhu
Technical & hardware support : Manuel Goepfert

Contact : metmap@orbifly.com




SOURCES & CREDITS :

   NOAA